createdAt,value
2024-02-02T00:02:20.182Z,103313.56
2024-02-02T00:04:46.899Z,103315.03
2024-02-02T00:07:13.794Z,103304.25
2024-02-02T00:09:40.676Z,103300.81
2024-02-02T00:12:12.184Z,103300.81
2024-02-02T00:14:39.241Z,103289.25
2024-02-02T00:17:06.141Z,103284.16
2024-02-02T00:19:33.420Z,103279.69
2024-02-02T00:22:00.257Z,103282.94
2024-02-02T00:24:26.951Z,103277.47
2024-02-02T00:26:54.016Z,103266.91
2024-02-02T00:29:20.564Z,103287.00
2024-02-02T00:31:47.237Z,103282.75
2024-02-02T00:34:14.166Z,103288.22
2024-02-02T00:36:40.891Z,103290.88
2024-02-02T00:39:07.550Z,103288.84
2024-02-02T00:41:34.359Z,103279.94
2024-02-02T00:44:01.055Z,103280.13
2024-02-02T00:46:29.843Z,103305.50
2024-02-02T00:48:56.613Z,103294.13
2024-02-02T00:51:23.409Z,103286.03
2024-02-02T00:53:50.202Z,103284.19
2024-02-02T00:56:16.906Z,103274.06
2024-02-02T00:58:43.723Z,103278.53
2024-02-02T01:01:10.351Z,103277.31
2024-02-02T01:03:38.814Z,103263.09
2024-02-02T01:06:05.954Z,103258.66
2024-02-02T01:08:32.755Z,103252.34
2024-02-02T01:11:01.826Z,103240.75
2024-02-02T01:13:30.232Z,103246.03
2024-02-02T01:15:57.857Z,103254.78
2024-02-02T01:18:24.589Z,103251.13
2024-02-02T01:20:51.565Z,103239.75
2024-02-02T01:23:18.593Z,103244.84
2024-02-02T01:25:45.244Z,103241.22
2024-02-02T01:28:11.975Z,103239.19
2024-02-02T01:30:39.081Z,103229.66
2024-02-02T01:33:06.246Z,103226.78
2024-02-02T01:35:32.980Z,103216.44
2024-02-02T01:37:59.534Z,103207.50
2024-02-02T01:40:26.489Z,103204.47
2024-02-02T01:42:53.132Z,103201.84
2024-02-02T01:45:20.282Z,103185.38
2024-02-02T01:47:47.141Z,103184.34
2024-02-02T01:50:13.951Z,103184.97
2024-02-02T01:52:41.131Z,103196.13
2024-02-02T01:55:08.613Z,103196.13
2024-02-02T01:57:35.387Z,103189.66
2024-02-02T02:00:03.424Z,103175.63
2024-02-02T02:02:30.767Z,103172.19
2024-02-02T02:04:58.513Z,103183.56
2024-02-02T02:07:25.406Z,103177.28
2024-02-02T02:09:52.253Z,103181.53
2024-02-02T02:12:19.155Z,103193.94
2024-02-02T02:14:46.176Z,103192.09
2024-02-02T02:17:13.013Z,103182.34
2024-02-02T02:19:40.987Z,103179.69
2024-02-02T02:22:07.962Z,103172.59
2024-02-02T02:24:34.684Z,103177.88
2024-02-02T02:27:01.773Z,103176.06
2024-02-02T02:29:28.773Z,103173.41
2024-02-02T02:31:56.469Z,103158.38
2024-02-02T02:34:30.336Z,103155.72
2024-02-02T02:36:57.129Z,103149.63
2024-02-02T02:39:23.839Z,103143.53
2024-02-02T02:41:50.912Z,103137.84
2024-02-02T02:44:17.754Z,103139.06
2024-02-02T02:46:44.398Z,103129.31
2024-02-02T02:49:11.352Z,103126.66
2024-02-02T02:51:43.206Z,103114.25
2024-02-02T02:54:10.340Z,103116.91
2024-02-02T02:56:36.993Z,103125.88
2024-02-02T02:59:04.024Z,103118.31
2024-02-02T03:01:30.706Z,103105.94
2024-02-02T03:03:57.398Z,103094.75
2024-02-02T03:06:24.189Z,103089.47
2024-02-02T03:08:50.892Z,103096.56
2024-02-02T03:11:17.584Z,103082.75
2024-02-02T03:13:44.128Z,103075.66
2024-02-02T03:16:10.972Z,103081.94
2024-02-02T03:18:37.785Z,103087.63
2024-02-02T03:21:05.124Z,103078.88
2024-02-02T03:23:31.796Z,103079.91
2024-02-02T03:25:58.479Z,103080.91
2024-02-02T03:28:25.115Z,103079.28
2024-02-02T03:30:51.918Z,103074.19
2024-02-02T03:33:18.936Z,103074.59
2024-02-02T03:35:45.629Z,103068.28
2024-02-02T03:38:12.427Z,103066.66
2024-02-02T03:40:39.082Z,103067.47
2024-02-02T03:43:05.726Z,103069.31
2024-02-02T03:45:32.966Z,103077.22
2024-02-02T03:48:01.560Z,103080.06
2024-02-02T03:50:28.701Z,103081.09
2024-02-02T03:52:56.458Z,103076.81
2024-02-02T03:55:23.160Z,103081.09
2024-02-02T03:57:49.930Z,103089.00
2024-02-02T04:00:17.411Z,103074.97
2024-02-02T04:02:46.877Z,103074.78
2024-02-02T04:05:13.675Z,103079.25
2024-02-02T04:07:40.408Z,103073.97
2024-02-02T04:10:08.600Z,103072.34
2024-02-02T04:12:35.709Z,103071.34
2024-02-02T04:15:02.408Z,103073.78
2024-02-02T04:17:29.301Z,103057.09
2024-02-02T04:19:56.240Z,103049.78
2024-02-02T04:22:23.108Z,103062.81
2024-02-02T04:24:49.742Z,103070.72
2024-02-02T04:27:16.563Z,103058.53
2024-02-02T04:29:43.379Z,103056.72
2024-02-02T04:32:10.046Z,103051.44
2024-02-02T04:34:37.146Z,103040.25
2024-02-02T04:37:04.133Z,103032.34
2024-02-02T04:39:30.806Z,103032.34
2024-02-02T04:41:57.647Z,103030.50
2024-02-02T04:44:25.678Z,103026.03
2024-02-02T04:46:52.538Z,103020.97
2024-02-02T04:49:19.528Z,103021.78
2024-02-02T04:51:46.729Z,103019.13
2024-02-02T04:54:13.573Z,103020.97
2024-02-02T04:56:40.335Z,103023.78
2024-02-02T04:59:06.944Z,103018.91
2024-02-02T05:01:35.842Z,103018.91
2024-02-02T05:04:02.541Z,103012.00
2024-02-02T05:06:29.316Z,102999.81
2024-02-02T05:08:56.719Z,103001.44
2024-02-02T05:11:23.394Z,103003.28
2024-02-02T05:13:50.236Z,102997.38
2024-02-02T05:16:16.948Z,102998.38
2024-02-02T05:18:43.892Z,102995.94
2024-02-02T05:21:10.869Z,102979.47
2024-02-02T05:23:43.678Z,102982.13
2024-02-02T05:26:16.291Z,102980.50
2024-02-02T05:28:43.380Z,102977.88
2024-02-02T05:31:10.710Z,102985.38
2024-02-02T05:33:37.543Z,102988.00
2024-02-02T05:36:04.537Z,102988.44
2024-02-02T05:38:31.314Z,102980.28
2024-02-02T05:40:57.867Z,102985.56
2024-02-02T05:43:25.006Z,102969.72
2024-02-02T05:45:51.645Z,102986.59
2024-02-02T05:48:18.660Z,102982.50
2024-02-02T05:50:46.723Z,102975.59
2024-02-02T05:53:13.909Z,102981.88
2024-02-02T05:55:40.893Z,102979.47
2024-02-02T05:58:07.975Z,102980.28
2024-02-02T06:00:34.975Z,102987.38
2024-02-02T06:03:01.884Z,102996.72
2024-02-02T06:05:28.731Z,102998.31
2024-02-02T06:07:55.454Z,103004.63
2024-02-02T06:10:22.049Z,103003.00
2024-02-02T06:12:48.580Z,103007.28
2024-02-02T06:15:16.717Z,102994.88
2024-02-02T06:17:43.390Z,102993.06
2024-02-02T06:20:11.139Z,103002.38
2024-02-02T06:22:37.795Z,102999.97
2024-02-02T06:25:04.876Z,103008.50
2024-02-02T06:27:32.255Z,103005.84
2024-02-02T06:30:05.050Z,103011.94
2024-02-02T06:32:31.808Z,103003.81
2024-02-02T06:35:00.300Z,103003.22
2024-02-02T06:37:28.035Z,103004.22
2024-02-02T06:39:56.166Z,102997.94
2024-02-02T06:42:23.740Z,102987.38
2024-02-02T06:44:52.464Z,102994.47
2024-02-02T06:47:19.336Z,102991.63
2024-02-02T06:49:46.091Z,102992.66
2024-02-02T06:52:14.855Z,102989.00
2024-02-02T06:54:45.159Z,102991.00
2024-02-02T06:57:11.995Z,102990.03
2024-02-02T06:59:39.107Z,102987.16
2024-02-02T07:02:31.272Z,102983.72
2024-02-02T07:04:58.829Z,102988.00
2024-02-02T07:07:26.217Z,102984.31
2024-02-02T07:09:57.709Z,102985.97
2024-02-02T07:12:43.557Z,102976.22
2024-02-02T07:15:18.007Z,102983.94
2024-02-02T07:17:46.602Z,102978.44
2024-02-02T07:20:31.709Z,102982.09
2024-02-02T07:23:02.598Z,102979.84
2024-02-02T07:25:38.176Z,102976.22
2024-02-02T07:28:08.880Z,102985.97
2024-02-02T07:30:59.352Z,102983.13
2024-02-02T07:33:39.714Z,102986.59
2024-02-02T07:36:24.584Z,102987.81
2024-02-02T07:38:56.871Z,102985.19
2024-02-02T07:41:26.222Z,102986.00
2024-02-02T07:43:55.269Z,102986.03
2024-02-02T07:46:22.767Z,102984.81
2024-02-02T07:48:50.745Z,102984.63
2024-02-02T07:51:19.460Z,102986.25
2024-02-02T07:53:47.508Z,102986.88
2024-02-02T07:56:14.643Z,102977.09
2024-02-02T07:58:41.364Z,102980.94
2024-02-02T08:01:09.580Z,102981.75
2024-02-02T08:03:37.102Z,102982.78
2024-02-02T08:06:05.169Z,102971.56
2024-02-02T08:08:33.410Z,102977.63
2024-02-02T08:11:03.165Z,102974.81
2024-02-02T08:13:31.603Z,102982.72
2024-02-02T08:15:59.940Z,102971.31
2024-02-02T08:18:28.449Z,102969.22
2024-02-02T08:20:55.885Z,102968.19
2024-02-02T08:23:23.064Z,102961.88
2024-02-02T08:25:49.863Z,102958.81
2024-02-02T08:28:16.470Z,102956.13
2024-02-02T08:30:43.224Z,102957.75
2024-02-02T08:33:10.515Z,102962.00
2024-02-02T08:35:37.490Z,102956.31
2024-02-02T08:38:07.936Z,102945.88
2024-02-02T08:40:40.206Z,102940.34
2024-02-02T08:43:15.801Z,102939.94
2024-02-02T08:45:42.563Z,102931.34
2024-02-02T08:48:24.667Z,102922.16
2024-02-02T08:50:51.828Z,102925.00
2024-02-02T08:53:19.302Z,102933.94
2024-02-02T08:55:50.570Z,102931.47
2024-02-02T08:58:33.058Z,102923.69
2024-02-02T09:01:00.768Z,102934.44
2024-02-02T09:03:47.002Z,102917.09
2024-02-02T09:06:26.155Z,102925.81
2024-02-02T09:08:52.856Z,102925.16
2024-02-02T09:11:24.644Z,102917.41
2024-02-02T09:14:15.956Z,102931.22
2024-02-02T09:16:44.886Z,102925.03
2024-02-02T09:19:27.861Z,102911.16
2024-02-02T09:21:57.764Z,102912.78
2024-02-02T09:24:37.046Z,102918.84
2024-02-02T09:27:04.264Z,102923.69
2024-02-02T09:29:31.480Z,102925.09
2024-02-02T09:31:58.290Z,102918.91
2024-02-02T09:34:26.065Z,102918.28
2024-02-02T09:36:54.766Z,102918.03
2024-02-02T09:39:51.364Z,102913.50
2024-02-02T09:42:52.429Z,102916.50
2024-02-02T09:45:28.793Z,102915.41
2024-02-02T09:48:23.008Z,102909.25
2024-02-02T09:51:00.236Z,102917.22
2024-02-02T09:54:07.483Z,102920.25
2024-02-02T09:56:39.798Z,102917.28
2024-02-02T09:59:26.759Z,102916.63
2024-02-02T10:02:19.598Z,102928.84
2024-02-02T10:04:58.193Z,102927.38
2024-02-02T10:07:52.761Z,102933.63
2024-02-02T10:10:31.589Z,102932.84
2024-02-02T10:13:04.286Z,102935.91
2024-02-02T10:16:11.817Z,102934.44
2024-02-02T10:18:38.859Z,102926.41
2024-02-02T10:21:49.087Z,102934.72
2024-02-02T10:24:31.007Z,102930.47
2024-02-02T10:27:35.340Z,102927.72
2024-02-02T10:30:17.760Z,102930.28
2024-02-02T10:32:50.759Z,102935.16
2024-02-02T10:35:45.543Z,102933.22
2024-02-02T10:38:30.598Z,102930.94
2024-02-02T10:41:23.624Z,102930.41
2024-02-02T10:44:11.909Z,102924.16
2024-02-02T10:47:07.148Z,102933.06
2024-02-02T10:49:52.826Z,102925.84
2024-02-02T10:52:46.068Z,102932.53
2024-02-02T10:55:19.400Z,102923.53
2024-02-02T10:58:08.656Z,102919.03
2024-02-02T11:00:49.218Z,102919.97
2024-02-02T11:03:46.676Z,102922.16
2024-02-02T11:06:35.905Z,102921.47
2024-02-02T11:09:10.571Z,102919.53
2024-02-02T11:11:47.259Z,102921.72
2024-02-02T11:14:30.917Z,102914.78
2024-02-02T11:17:22.203Z,102919.31
2024-02-02T11:20:01.101Z,102918.53
2024-02-02T11:22:46.289Z,102923.72
2024-02-02T11:25:20.062Z,102916.06
2024-02-02T11:27:58.596Z,102912.19
2024-02-02T11:30:37.361Z,102903.03
2024-02-02T11:33:22.341Z,102909.25
2024-02-02T11:35:55.287Z,102914.72
2024-02-02T11:38:41.100Z,102903.50
2024-02-02T11:41:17.617Z,102910.31
2024-02-02T11:43:46.744Z,102914.13
2024-02-02T11:46:15.651Z,102900.25
2024-02-02T11:48:45.617Z,102895.75
2024-02-02T11:51:13.003Z,102887.19
2024-02-02T11:53:56.528Z,102896.22
2024-02-02T11:56:33.641Z,102882.59
2024-02-02T11:59:10.503Z,102886.63
2024-02-02T12:02:01.380Z,102894.38
2024-02-02T12:04:50.614Z,102889.97
2024-02-02T12:07:54.977Z,102884.09
2024-02-02T12:10:24.497Z,102892.84
2024-02-02T12:13:06.324Z,102894.13
2024-02-02T12:15:33.886Z,102889.63
2024-02-02T12:18:03.944Z,102892.75
2024-02-02T12:20:32.560Z,102891.47
2024-02-02T12:22:59.647Z,102892.88
2024-02-02T12:25:27.162Z,102885.69
2024-02-02T12:27:54.334Z,102884.78
2024-02-02T12:30:21.621Z,102889.28
2024-02-02T12:33:04.709Z,102886.75
2024-02-02T12:35:32.160Z,102885.13
2024-02-02T12:37:59.173Z,102877.75
2024-02-02T12:40:26.695Z,102865.97
2024-02-02T12:42:57.538Z,102866.63
2024-02-02T12:45:24.651Z,102866.06
2024-02-02T12:47:51.686Z,102864.34
2024-02-02T12:50:22.838Z,102881.09
2024-02-02T12:52:55.349Z,102869.88
2024-02-02T12:55:22.336Z,102858.78
2024-02-02T12:57:49.314Z,102862.94
2024-02-02T13:00:16.799Z,102852.06
2024-02-02T13:02:45.486Z,102851.94
2024-02-02T13:05:18.739Z,102842.72
2024-02-02T13:07:49.000Z,102847.34
2024-02-02T13:10:35.135Z,102843.97
2024-02-02T13:13:14.919Z,102834.19
2024-02-02T13:15:43.895Z,102842.59
2024-02-02T13:18:16.475Z,102842.81
2024-02-02T13:20:47.233Z,102826.66
2024-02-02T13:23:26.493Z,102825.13
2024-02-02T13:26:02.660Z,102819.47
2024-02-02T13:28:31.019Z,102812.88
2024-02-02T13:30:59.725Z,102823.84
2024-02-02T13:33:33.248Z,102817.50
2024-02-02T13:36:03.057Z,102805.03
2024-02-02T13:38:32.889Z,102802.44
2024-02-02T13:41:03.138Z,102803.72
2024-02-02T13:43:30.513Z,102799.56
2024-02-02T13:46:08.956Z,102788.22
2024-02-02T13:48:38.526Z,102782.66
2024-02-02T13:51:06.790Z,102791.44
2024-02-02T13:53:33.918Z,102797.72
2024-02-02T13:56:06.492Z,102787.16
2024-02-02T13:58:40.527Z,102793.19
2024-02-02T14:01:13.845Z,102807.63
2024-02-02T14:03:40.863Z,102797.50
2024-02-02T14:06:08.026Z,102803.69
2024-02-02T14:16:34.337Z,102798.13
2024-02-02T14:19:06.367Z,102791.22
2024-02-02T14:21:34.955Z,102786.69
2024-02-02T14:24:18.973Z,102791.69
2024-02-02T14:27:09.639Z,102785.56
2024-02-02T14:29:43.138Z,102786.28
2024-02-02T14:32:13.773Z,102797.34
2024-02-02T14:34:40.797Z,102778.38
2024-02-02T14:37:10.016Z,102790.53
2024-02-02T14:39:36.963Z,102782.44
2024-02-02T14:42:04.766Z,102778.72
2024-02-02T14:44:31.574Z,102777.94
2024-02-02T14:47:00.545Z,102790.06
2024-02-02T14:49:27.665Z,102792.97
2024-02-02T14:51:55.375Z,102778.06
2024-02-02T14:54:22.948Z,102770.75
2024-02-02T14:57:02.187Z,102769.72
2024-02-02T14:59:42.337Z,102756.41
2024-02-02T15:02:09.851Z,102769.72
2024-02-02T15:04:36.747Z,102764.06
2024-02-02T15:07:04.317Z,102764.84
2024-02-02T15:09:32.087Z,102753.41
2024-02-02T15:12:04.404Z,102761.41
2024-02-02T15:14:33.843Z,102771.81
2024-02-02T15:17:00.811Z,102755.84
2024-02-02T15:19:27.780Z,102761.16
2024-02-02T15:21:54.802Z,102758.50
2024-02-02T15:24:21.659Z,102761.16
2024-02-02T15:26:48.819Z,102766.50
2024-02-02T15:29:16.020Z,102761.41
2024-02-02T15:31:42.684Z,102744.38
2024-02-02T15:34:09.802Z,102754.22
2024-02-02T15:36:37.011Z,102760.59
2024-02-02T15:39:18.697Z,102756.53
2024-02-02T15:41:53.258Z,102756.78
2024-02-02T15:44:19.995Z,102749.06
2024-02-02T15:46:46.570Z,102758.97
2024-02-02T15:49:13.623Z,102749.75
2024-02-02T15:51:40.721Z,102752.19
2024-02-02T15:54:07.702Z,102760.41
2024-02-02T15:56:40.727Z,102760.97
2024-02-02T15:59:11.018Z,102763.41
2024-02-02T16:01:38.318Z,102767.31
2024-02-02T16:04:05.329Z,102760.97
2024-02-02T16:06:32.463Z,102767.31
2024-02-02T16:08:59.415Z,102759.69
2024-02-02T16:11:26.119Z,102753.78
2024-02-02T16:13:53.518Z,102761.69
2024-02-02T16:16:21.319Z,102765.38
2024-02-02T16:18:48.848Z,102759.47
2024-02-02T16:21:15.883Z,102764.22
2024-02-02T16:23:42.591Z,102753.72
2024-02-02T16:26:28.061Z,102765.16
2024-02-02T16:28:54.748Z,102773.34
2024-02-02T16:31:21.473Z,102768.38
2024-02-02T16:33:48.420Z,102764.66
2024-02-02T16:36:15.253Z,102769.97
2024-02-02T16:38:44.163Z,102760.63
2024-02-02T16:41:14.352Z,102763.41
2024-02-02T16:43:41.191Z,102753.56
2024-02-02T16:46:08.080Z,102754.38
2024-02-02T16:48:34.835Z,102752.06
2024-02-02T16:51:01.722Z,102755.03
2024-02-02T16:53:28.682Z,102748.81
2024-02-02T16:55:55.539Z,102744.78
2024-02-02T16:58:22.134Z,102746.63
2024-02-02T17:00:49.598Z,102752.84
2024-02-02T17:03:16.486Z,102748.56
2024-02-02T17:05:43.282Z,102749.06
2024-02-02T17:08:10.367Z,102755.16
2024-02-02T17:10:36.972Z,102757.25
2024-02-02T17:13:03.787Z,102748.00
2024-02-02T17:15:30.699Z,102761.78
2024-02-02T17:17:57.492Z,102771.38
2024-02-02T17:20:27.032Z,102771.91
2024-02-02T17:22:55.266Z,102772.41
2024-02-02T17:25:22.008Z,102773.78
2024-02-02T17:27:48.692Z,102779.81
2024-02-02T17:30:18.384Z,102782.00
2024-02-02T17:32:45.372Z,102790.44
2024-02-02T17:35:12.124Z,102793.59
2024-02-02T17:37:40.059Z,102793.09
2024-02-02T17:40:08.583Z,102795.66
2024-02-02T17:42:35.586Z,102799.34
2024-02-02T17:45:02.400Z,102803.06
2024-02-02T17:47:29.209Z,102800.41
2024-02-02T17:49:56.899Z,102796.13
2024-02-02T17:52:24.878Z,102807.56
2024-02-02T17:54:51.694Z,102811.84
2024-02-02T17:57:19.840Z,102813.13
2024-02-02T17:59:46.704Z,102814.72
2024-02-02T18:02:13.523Z,102815.88
2024-02-02T18:04:40.447Z,102831.03
2024-02-02T18:07:09.649Z,102832.31
2024-02-02T18:09:40.219Z,102839.34
2024-02-02T18:12:11.902Z,102841.44
2024-02-02T18:14:39.775Z,102844.53
2024-02-02T18:17:06.850Z,102838.78
2024-02-02T18:19:34.074Z,102843.16
2024-02-02T18:22:01.088Z,102845.03
2024-02-02T18:24:27.900Z,102829.53
2024-02-02T18:26:54.463Z,102838.88
2024-02-02T18:29:21.056Z,102838.66
2024-02-02T18:31:50.082Z,102841.88
2024-02-02T18:34:17.111Z,102836.00
2024-02-02T18:36:43.942Z,102839.00
2024-02-02T18:39:13.736Z,102842.47
2024-02-02T18:41:40.398Z,102837.94
2024-02-02T18:44:08.729Z,102842.34
2024-02-02T18:46:35.384Z,102840.59
2024-02-02T18:49:04.200Z,102848.25
2024-02-02T18:51:32.340Z,102846.06
2024-02-02T18:53:59.110Z,102845.03
2024-02-02T18:56:25.811Z,102842.25
2024-02-02T18:58:52.528Z,102848.63
2024-02-02T19:01:26.365Z,102834.84
2024-02-02T19:03:54.008Z,102832.19
2024-02-02T19:06:21.364Z,102831.25
2024-02-02T19:08:48.226Z,102839.22
2024-02-02T19:11:16.139Z,102844.19
2024-02-02T19:13:42.941Z,102830.34
2024-02-02T19:16:24.007Z,102836.22
2024-02-02T19:18:51.553Z,102835.19
2024-02-02T19:21:23.007Z,102835.53
2024-02-02T19:23:50.467Z,102839.72
2024-02-02T19:26:55.327Z,102834.41
2024-02-02T19:29:22.009Z,102821.91
2024-02-02T19:31:48.758Z,102818.53
2024-02-02T19:34:15.719Z,102824.34
2024-02-02T19:36:42.598Z,102825.59
2024-02-02T19:39:09.872Z,102830.69
2024-02-02T19:41:36.541Z,102831.16
2024-02-02T19:44:03.306Z,102836.00
2024-02-02T19:46:32.757Z,102830.91
2024-02-02T19:49:01.387Z,102836.00
2024-02-02T19:51:29.990Z,102847.69
2024-02-02T19:53:57.117Z,102844.78
2024-02-02T19:56:24.255Z,102836.34
2024-02-02T19:58:51.108Z,102840.28
2024-02-02T20:01:22.164Z,102832.53
2024-02-02T20:03:50.993Z,102830.69
2024-02-02T20:06:19.471Z,102833.69
2024-02-02T20:08:53.545Z,102833.22
2024-02-02T20:11:26.596Z,102842.00
2024-02-02T20:13:53.445Z,102844.09
2024-02-02T20:16:21.522Z,102836.56
2024-02-02T20:21:48.701Z,102839.00
2024-02-02T20:24:15.582Z,102838.22
2024-02-02T20:26:42.513Z,102849.28
2024-02-02T20:29:09.562Z,102846.28
2024-02-02T20:31:41.012Z,102835.66
2024-02-02T20:34:07.766Z,102832.91
2024-02-02T20:36:34.646Z,102839.59
2024-02-02T20:39:01.387Z,102828.97
2024-02-02T20:41:28.246Z,102846.53
2024-02-02T20:43:55.345Z,102839.94
2024-02-02T20:46:22.306Z,102846.53
2024-02-02T20:48:50.587Z,102839.38
2024-02-02T20:51:18.160Z,102836.13
2024-02-02T20:53:45.469Z,102841.22
2024-02-02T20:56:12.467Z,102823.63
2024-02-02T20:58:39.231Z,102840.16
2024-02-02T21:01:07.118Z,102824.78
2024-02-02T21:03:34.241Z,102826.06
2024-02-02T21:06:01.930Z,102823.88
2024-02-02T21:08:29.211Z,102834.41
2024-02-02T21:10:56.463Z,102825.72
2024-02-02T21:13:23.489Z,102831.16
2024-02-02T21:15:50.637Z,102838.25
2024-02-02T21:18:17.607Z,102830.84
2024-02-02T21:20:46.585Z,102827.03
2024-02-02T21:23:13.606Z,102832.44
2024-02-02T21:25:44.553Z,102839.25
2024-02-02T21:28:11.282Z,102838.69
2024-02-02T21:30:38.132Z,102828.50
2024-02-02T21:33:05.559Z,102829.78
2024-02-02T21:35:32.284Z,102829.41
2024-02-02T21:37:59.303Z,102835.19
2024-02-02T21:40:25.975Z,102828.16
2024-02-02T21:42:55.446Z,102827.56
2024-02-02T21:45:22.925Z,102835.97
2024-02-02T21:47:49.919Z,102831.94
2024-02-02T21:50:17.061Z,102833.56
2024-02-02T21:52:44.235Z,102825.25
2024-02-02T21:55:39.047Z,102824.66
2024-02-02T21:58:05.762Z,102826.28
2024-02-02T22:00:32.550Z,102831.59
2024-02-02T22:03:00.375Z,102834.84
2024-02-02T22:05:27.022Z,102843.25
2024-02-02T22:07:54.970Z,102830.78
2024-02-02T22:10:21.807Z,102828.38
2024-02-02T22:12:48.442Z,102824.06
2024-02-02T22:15:15.602Z,102819.56
2024-02-02T22:17:42.394Z,102817.97
2024-02-02T22:20:09.645Z,102819.81
2024-02-02T22:22:36.300Z,102819.00
2024-02-02T22:25:03.854Z,102811.84
2024-02-02T22:27:34.942Z,102814.50
2024-02-02T22:30:07.298Z,102823.28
2024-02-02T22:32:34.391Z,102821.41
2024-02-02T22:35:02.528Z,102823.28
2024-02-02T22:37:29.364Z,102824.88
2024-02-02T22:39:56.546Z,102825.72
2024-02-02T22:42:23.559Z,102816.91
2024-02-02T22:44:50.589Z,102834.69
2024-02-02T22:47:17.241Z,102825.94
2024-02-02T22:49:44.014Z,102829.38
2024-02-02T22:52:10.917Z,102816.13
2024-02-02T22:54:37.667Z,102822.22
2024-02-02T22:57:04.858Z,102810.59
2024-02-02T22:59:31.569Z,102804.22
2024-02-02T23:01:58.271Z,102804.47
2024-02-02T23:04:25.011Z,102816.91
2024-02-02T23:06:51.735Z,102808.16
2024-02-02T23:09:18.580Z,102803.91
2024-02-02T23:11:45.289Z,102810.22
2024-02-02T23:37:25.417Z,102801.69
2024-02-02T23:39:52.380Z,102800.66
2024-02-02T23:42:19.122Z,102793.50
2024-02-02T23:44:45.680Z,102789.47
2024-02-02T23:47:12.549Z,102805.38
2024-02-02T23:49:39.715Z,102804.34
2024-02-02T23:52:07.037Z,102808.63
2024-02-02T23:54:33.842Z,102805.38
2024-02-02T23:57:00.824Z,102802.47
2024-02-02T23:59:27.459Z,102803.31
